sensor_id;sensor_type;location;lat;lon;timestamp;P1;durP1;ratioP1;P2;durP2;ratioP2
67227;SDS011;54139;42.616;23.748;2023-06-26T00:00:11;37.38;;;23.83;;
67227;SDS011;54139;42.616;23.748;2023-06-26T00:02:37;39.20;;;24.15;;
67227;SDS011;54139;42.616;23.748;2023-06-26T00:05:03;40.60;;;25.60;;
67227;SDS011;54139;42.616;23.748;2023-06-26T00:07:30;39.25;;;26.05;;
67227;SDS011;54139;42.616;23.748;2023-06-26T00:09:56;40.47;;;28.15;;
67227;SDS011;54139;42.616;23.748;2023-06-26T00:12:22;45.92;;;29.98;;
67227;SDS011;54139;42.616;23.748;2023-06-26T00:14:47;46.78;;;29.50;;
67227;SDS011;54139;42.616;23.748;2023-06-26T00:17:13;40.53;;;29.10;;
67227;SDS011;54139;42.616;23.748;2023-06-26T00:19:38;44.30;;;31.42;;
67227;SDS011;54139;42.616;23.748;2023-06-26T00:22:04;41.35;;;30.40;;
67227;SDS011;54139;42.616;23.748;2023-06-26T00:24:29;48.45;;;32.00;;
67227;SDS011;54139;42.616;23.748;2023-06-26T00:26:54;46.88;;;31.60;;
67227;SDS011;54139;42.616;23.748;2023-06-26T00:29:20;43.90;;;31.05;;
67227;SDS011;54139;42.616;23.748;2023-06-26T00:31:45;42.75;;;30.90;;
67227;SDS011;54139;42.616;23.748;2023-06-26T00:34:11;46.92;;;32.58;;
67227;SDS011;54139;42.616;23.748;2023-06-26T00:36:36;47.10;;;32.97;;
67227;SDS011;54139;42.616;23.748;2023-06-26T00:39:02;47.28;;;33.15;;
67227;SDS011;54139;42.616;23.748;2023-06-26T00:41:28;44.03;;;31.73;;
67227;SDS011;54139;42.616;23.748;2023-06-26T00:43:54;43.70;;;31.02;;
67227;SDS011;54139;42.616;23.748;2023-06-26T00:46:20;46.42;;;32.35;;
67227;SDS011;54139;42.616;23.748;2023-06-26T00:48:46;45.40;;;31.50;;
67227;SDS011;54139;42.616;23.748;2023-06-26T00:51:13;42.72;;;32.13;;
67227;SDS011;54139;42.616;23.748;2023-06-26T00:53:39;39.67;;;30.85;;
67227;SDS011;54139;42.616;23.748;2023-06-26T00:56:04;48.67;;;32.75;;
67227;SDS011;54139;42.616;23.748;2023-06-26T00:58:30;43.42;;;31.70;;
67227;SDS011;54139;42.616;23.748;2023-06-26T01:00:56;43.92;;;31.58;;
67227;SDS011;54139;42.616;23.748;2023-06-26T01:03:24;44.53;;;33.83;;
67227;SDS011;54139;42.616;23.748;2023-06-26T01:05:51;43.97;;;34.05;;
67227;SDS011;54139;42.616;23.748;2023-06-26T01:08:17;46.53;;;35.40;;
67227;SDS011;54139;42.616;23.748;2023-06-26T01:10:43;40.47;;;34.63;;
67227;SDS011;54139;42.616;23.748;2023-06-26T01:13:10;41.78;;;35.03;;
67227;SDS011;54139;42.616;23.748;2023-06-26T01:15:37;43.67;;;33.45;;
67227;SDS011;54139;42.616;23.748;2023-06-26T01:18:02;43.60;;;34.97;;
67227;SDS011;54139;42.616;23.748;2023-06-26T01:20:30;42.33;;;35.78;;
67227;SDS011;54139;42.616;23.748;2023-06-26T01:28:16;39.83;;;34.57;;
67227;SDS011;54139;42.616;23.748;2023-06-26T01:30:43;37.47;;;33.20;;
67227;SDS011;54139;42.616;23.748;2023-06-26T01:33:09;38.97;;;33.00;;
67227;SDS011;54139;42.616;23.748;2023-06-26T01:35:36;37.95;;;32.33;;
67227;SDS011;54139;42.616;23.748;2023-06-26T01:38:11;40.28;;;33.65;;
67227;SDS011;54139;42.616;23.748;2023-06-26T01:40:38;38.83;;;32.90;;
67227;SDS011;54139;42.616;23.748;2023-06-26T01:43:04;35.35;;;31.60;;
67227;SDS011;54139;42.616;23.748;2023-06-26T01:45:31;34.35;;;30.75;;
67227;SDS011;54139;42.616;23.748;2023-06-26T01:47:57;34.60;;;29.92;;
67227;SDS011;54139;42.616;23.748;2023-06-26T01:50:26;37.33;;;31.20;;
67227;SDS011;54139;42.616;23.748;2023-06-26T01:55:45;33.25;;;29.83;;
67227;SDS011;54139;42.616;23.748;2023-06-26T01:58:13;34.60;;;30.65;;
67227;SDS011;54139;42.616;23.748;2023-06-26T02:00:39;34.42;;;30.88;;
67227;SDS011;54139;42.616;23.748;2023-06-26T02:03:05;33.28;;;29.63;;
67227;SDS011;54139;42.616;23.748;2023-06-26T02:05:31;33.80;;;28.73;;
67227;SDS011;54139;42.616;23.748;2023-06-26T02:07:57;35.75;;;30.23;;
67227;SDS011;54139;42.616;23.748;2023-06-26T02:10:22;33.85;;;28.67;;
67227;SDS011;54139;42.616;23.748;2023-06-26T02:12:48;34.60;;;29.40;;
67227;SDS011;54139;42.616;23.748;2023-06-26T02:15:13;32.22;;;28.73;;
67227;SDS011;54139;42.616;23.748;2023-06-26T02:17:38;32.22;;;28.83;;
67227;SDS011;54139;42.616;23.748;2023-06-26T02:20:04;29.80;;;26.90;;
67227;SDS011;54139;42.616;23.748;2023-06-26T02:22:30;31.38;;;26.65;;
67227;SDS011;54139;42.616;23.748;2023-06-26T02:24:56;30.10;;;26.90;;
67227;SDS011;54139;42.616;23.748;2023-06-26T02:27:21;32.78;;;28.17;;
67227;SDS011;54139;42.616;23.748;2023-06-26T02:29:47;30.33;;;27.17;;
67227;SDS011;54139;42.616;23.748;2023-06-26T02:32:12;29.65;;;26.13;;
67227;SDS011;54139;42.616;23.748;2023-06-26T02:34:38;30.42;;;27.17;;
67227;SDS011;54139;42.616;23.748;2023-06-26T02:37:03;28.50;;;25.58;;
67227;SDS011;54139;42.616;23.748;2023-06-26T02:39:32;29.67;;;26.58;;
67227;SDS011;54139;42.616;23.748;2023-06-26T02:41:58;28.08;;;25.08;;
67227;SDS011;54139;42.616;23.748;2023-06-26T02:44:24;28.48;;;25.45;;
67227;SDS011;54139;42.616;23.748;2023-06-26T02:46:49;27.92;;;24.75;;
67227;SDS011;54139;42.616;23.748;2023-06-26T02:49:15;29.42;;;26.23;;
67227;SDS011;54139;42.616;23.748;2023-06-26T02:51:40;28.67;;;25.08;;
67227;SDS011;54139;42.616;23.748;2023-06-26T02:54:06;27.67;;;24.85;;
67227;SDS011;54139;42.616;23.748;2023-06-26T02:56:31;25.95;;;23.05;;
67227;SDS011;54139;42.616;23.748;2023-06-26T02:58:57;24.92;;;22.63;;
67227;SDS011;54139;42.616;23.748;2023-06-26T03:01:22;26.08;;;23.48;;
67227;SDS011;54139;42.616;23.748;2023-06-26T03:03:48;27.25;;;22.38;;
67227;SDS011;54139;42.616;23.748;2023-06-26T03:06:14;25.02;;;22.52;;
67227;SDS011;54139;42.616;23.748;2023-06-26T03:08:39;24.48;;;22.15;;
67227;SDS011;54139;42.616;23.748;2023-06-26T03:11:05;23.00;;;20.83;;
67227;SDS011;54139;42.616;23.748;2023-06-26T03:13:32;22.98;;;20.88;;
67227;SDS011;54139;42.616;23.748;2023-06-26T03:15:58;25.67;;;22.98;;
67227;SDS011;54139;42.616;23.748;2023-06-26T03:18:24;23.10;;;21.00;;
67227;SDS011;54139;42.616;23.748;2023-06-26T03:20:49;25.45;;;22.83;;
67227;SDS011;54139;42.616;23.748;2023-06-26T03:23:15;24.63;;;21.63;;
67227;SDS011;54139;42.616;23.748;2023-06-26T03:25:40;24.33;;;22.02;;
67227;SDS011;54139;42.616;23.748;2023-06-26T03:28:06;23.35;;;21.25;;
67227;SDS011;54139;42.616;23.748;2023-06-26T03:30:31;25.48;;;22.98;;
67227;SDS011;54139;42.616;23.748;2023-06-26T03:32:56;24.63;;;21.92;;
67227;SDS011;54139;42.616;23.748;2023-06-26T03:35:22;24.63;;;21.88;;
67227;SDS011;54139;42.616;23.748;2023-06-26T03:37:48;26.02;;;23.42;;
67227;SDS011;54139;42.616;23.748;2023-06-26T03:40:14;24.92;;;22.48;;
67227;SDS011;54139;42.616;23.748;2023-06-26T03:42:39;24.35;;;21.95;;
67227;SDS011;54139;42.616;23.748;2023-06-26T03:45:06;23.38;;;20.77;;
67227;SDS011;54139;42.616;23.748;2023-06-26T03:47:31;24.48;;;22.08;;
67227;SDS011;54139;42.616;23.748;2023-06-26T03:49:57;24.45;;;21.98;;
67227;SDS011;54139;42.616;23.748;2023-06-26T03:52:22;25.80;;;23.40;;
67227;SDS011;54139;42.616;23.748;2023-06-26T03:54:48;25.92;;;23.45;;
67227;SDS011;54139;42.616;23.748;2023-06-26T03:57:14;26.25;;;23.42;;
67227;SDS011;54139;42.616;23.748;2023-06-26T03:59:39;27.00;;;24.17;;
67227;SDS011;54139;42.616;23.748;2023-06-26T04:02:05;26.40;;;23.90;;
67227;SDS011;54139;42.616;23.748;2023-06-26T04:04:30;25.45;;;23.15;;
67227;SDS011;54139;42.616;23.748;2023-06-26T04:06:56;25.42;;;23.08;;
67227;SDS011;54139;42.616;23.748;2023-06-26T04:09:24;27.83;;;24.25;;
67227;SDS011;54139;42.616;23.748;2023-06-26T04:11:49;26.83;;;24.20;;
67227;SDS011;54139;42.616;23.748;2023-06-26T04:14:15;28.00;;;25.33;;
67227;SDS011;54139;42.616;23.748;2023-06-26T04:16:40;28.00;;;24.80;;
67227;SDS011;54139;42.616;23.748;2023-06-26T04:19:06;27.00;;;24.25;;
67227;SDS011;54139;42.616;23.748;2023-06-26T04:21:31;25.75;;;23.27;;
67227;SDS011;54139;42.616;23.748;2023-06-26T04:23:57;26.55;;;24.05;;
67227;SDS011;54139;42.616;23.748;2023-06-26T04:26:22;25.95;;;23.17;;
67227;SDS011;54139;42.616;23.748;2023-06-26T04:28:48;28.67;;;22.65;;
67227;SDS011;54139;42.616;23.748;2023-06-26T04:31:13;23.98;;;21.38;;
67227;SDS011;54139;42.616;23.748;2023-06-26T04:33:38;28.35;;;25.75;;
67227;SDS011;54139;42.616;23.748;2023-06-26T04:36:04;27.77;;;25.13;;
67227;SDS011;54139;42.616;23.748;2023-06-26T04:38:30;28.80;;;26.08;;
67227;SDS011;54139;42.616;23.748;2023-06-26T04:40:56;27.67;;;25.17;;
67227;SDS011;54139;42.616;23.748;2023-06-26T04:43:22;26.40;;;23.90;;
67227;SDS011;54139;42.616;23.748;2023-06-26T04:45:47;26.00;;;23.42;;
67227;SDS011;54139;42.616;23.748;2023-06-26T04:48:13;27.48;;;24.98;;
67227;SDS011;54139;42.616;23.748;2023-06-26T04:50:39;26.98;;;24.77;;
67227;SDS011;54139;42.616;23.748;2023-06-26T04:53:04;28.15;;;25.45;;
67227;SDS011;54139;42.616;23.748;2023-06-26T04:55:30;27.48;;;24.88;;
67227;SDS011;54139;42.616;23.748;2023-06-26T04:57:56;29.23;;;26.73;;
67227;SDS011;54139;42.616;23.748;2023-06-26T05:00:21;28.35;;;25.60;;
67227;SDS011;54139;42.616;23.748;2023-06-26T05:02:47;29.25;;;26.48;;
67227;SDS011;54139;42.616;23.748;2023-06-26T05:05:13;28.17;;;25.48;;
67227;SDS011;54139;42.616;23.748;2023-06-26T05:10:08;28.33;;;25.65;;
67227;SDS011;54139;42.616;23.748;2023-06-26T05:12:34;26.48;;;24.13;;
67227;SDS011;54139;42.616;23.748;2023-06-26T05:14:59;28.65;;;26.00;;
67227;SDS011;54139;42.616;23.748;2023-06-26T05:17:24;28.45;;;25.65;;
67227;SDS011;54139;42.616;23.748;2023-06-26T05:19:50;28.42;;;25.80;;
67227;SDS011;54139;42.616;23.748;2023-06-26T05:22:16;29.50;;;26.90;;
67227;SDS011;54139;42.616;23.748;2023-06-26T05:24:42;29.52;;;26.80;;
67227;SDS011;54139;42.616;23.748;2023-06-26T05:27:11;31.05;;;27.70;;
67227;SDS011;54139;42.616;23.748;2023-06-26T05:29:44;28.08;;;25.48;;
67227;SDS011;54139;42.616;23.748;2023-06-26T05:32:10;28.60;;;25.98;;
67227;SDS011;54139;42.616;23.748;2023-06-26T05:34:36;27.92;;;25.23;;
67227;SDS011;54139;42.616;23.748;2023-06-26T05:37:02;28.67;;;25.63;;
67227;SDS011;54139;42.616;23.748;2023-06-26T05:39:29;26.30;;;23.83;;
67227;SDS011;54139;42.616;23.748;2023-06-26T05:41:54;26.10;;;23.48;;
67227;SDS011;54139;42.616;23.748;2023-06-26T05:44:21;27.58;;;24.73;;
67227;SDS011;54139;42.616;23.748;2023-06-26T05:46:46;27.10;;;24.20;;
67227;SDS011;54139;42.616;23.748;2023-06-26T05:49:12;26.85;;;24.65;;
67227;SDS011;54139;42.616;23.748;2023-06-26T05:51:39;27.88;;;25.25;;
67227;SDS011;54139;42.616;23.748;2023-06-26T05:54:05;25.70;;;23.20;;
67227;SDS011;54139;42.616;23.748;2023-06-26T05:56:30;26.30;;;24.05;;
67227;SDS011;54139;42.616;23.748;2023-06-26T05:58:56;26.63;;;24.42;;
67227;SDS011;54139;42.616;23.748;2023-06-26T06:01:22;26.02;;;23.58;;
67227;SDS011;54139;42.616;23.748;2023-06-26T06:03:48;26.75;;;24.02;;
67227;SDS011;54139;42.616;23.748;2023-06-26T06:06:13;25.63;;;23.33;;
67227;SDS011;54139;42.616;23.748;2023-06-26T06:08:39;25.67;;;23.52;;
67227;SDS011;54139;42.616;23.748;2023-06-26T06:11:05;25.63;;;23.15;;
67227;SDS011;54139;42.616;23.748;2023-06-26T06:13:30;26.88;;;24.40;;
67227;SDS011;54139;42.616;23.748;2023-06-26T06:15:56;25.50;;;23.08;;
67227;SDS011;54139;42.616;23.748;2023-06-26T06:18:21;26.88;;;24.35;;
67227;SDS011;54139;42.616;23.748;2023-06-26T06:20:47;25.70;;;23.38;;
67227;SDS011;54139;42.616;23.748;2023-06-26T06:23:12;26.05;;;23.80;;
67227;SDS011;54139;42.616;23.748;2023-06-26T06:25:38;25.33;;;23.05;;
67227;SDS011;54139;42.616;23.748;2023-06-26T06:28:05;26.20;;;23.90;;
67227;SDS011;54139;42.616;23.748;2023-06-26T06:30:30;26.30;;;23.83;;
67227;SDS011;54139;42.616;23.748;2023-06-26T06:32:56;26.63;;;23.77;;
67227;SDS011;54139;42.616;23.748;2023-06-26T06:35:22;25.95;;;23.55;;
67227;SDS011;54139;42.616;23.748;2023-06-26T06:37:48;25.58;;;23.45;;
67227;SDS011;54139;42.616;23.748;2023-06-26T06:40:13;24.27;;;22.02;;
67227;SDS011;54139;42.616;23.748;2023-06-26T06:42:39;25.27;;;22.95;;
67227;SDS011;54139;42.616;23.748;2023-06-26T06:45:05;24.38;;;22.02;;
67227;SDS011;54139;42.616;23.748;2023-06-26T06:47:32;24.95;;;22.45;;
67227;SDS011;54139;42.616;23.748;2023-06-26T06:49:58;24.40;;;21.90;;
67227;SDS011;54139;42.616;23.748;2023-06-26T06:52:26;21.33;;;19.50;;
67227;SDS011;54139;42.616;23.748;2023-06-26T06:57:18;22.17;;;20.17;;
67227;SDS011;54139;42.616;23.748;2023-06-26T06:59:44;21.20;;;19.58;;
67227;SDS011;54139;42.616;23.748;2023-06-26T07:02:10;22.67;;;19.63;;
67227;SDS011;54139;42.616;23.748;2023-06-26T07:04:35;20.40;;;18.67;;
67227;SDS011;54139;42.616;23.748;2023-06-26T07:07:01;19.33;;;17.63;;
67227;SDS011;54139;42.616;23.748;2023-06-26T07:09:26;18.10;;;16.52;;
67227;SDS011;54139;42.616;23.748;2023-06-26T07:11:52;15.43;;;14.25;;
67227;SDS011;54139;42.616;23.748;2023-06-26T07:14:18;15.65;;;14.30;;
67227;SDS011;54139;42.616;23.748;2023-06-26T07:16:43;14.70;;;13.23;;
67227;SDS011;54139;42.616;23.748;2023-06-26T07:19:09;17.45;;;13.73;;
67227;SDS011;54139;42.616;23.748;2023-06-26T07:21:34;15.07;;;13.80;;
67227;SDS011;54139;42.616;23.748;2023-06-26T07:23:59;14.65;;;13.35;;
67227;SDS011;54139;42.616;23.748;2023-06-26T07:26:25;12.70;;;11.65;;
67227;SDS011;54139;42.616;23.748;2023-06-26T07:28:50;12.35;;;11.15;;
67227;SDS011;54139;42.616;23.748;2023-06-26T07:31:16;12.07;;;10.88;;
67227;SDS011;54139;42.616;23.748;2023-06-26T07:33:41;11.48;;;10.35;;
67227;SDS011;54139;42.616;23.748;2023-06-26T07:36:07;10.18;;;9.30;;
67227;SDS011;54139;42.616;23.748;2023-06-26T07:38:32;10.95;;;7.40;;
67227;SDS011;54139;42.616;23.748;2023-06-26T07:40:58;7.43;;;6.43;;
67227;SDS011;54139;42.616;23.748;2023-06-26T07:43:23;8.35;;;6.45;;
67227;SDS011;54139;42.616;23.748;2023-06-26T07:45:49;7.75;;;7.05;;
67227;SDS011;54139;42.616;23.748;2023-06-26T07:48:16;9.10;;;8.30;;
67227;SDS011;54139;42.616;23.748;2023-06-26T07:50:42;10.13;;;9.30;;
67227;SDS011;54139;42.616;23.748;2023-06-26T07:53:08;8.25;;;7.55;;
67227;SDS011;54139;42.616;23.748;2023-06-26T07:55:33;8.02;;;7.20;;
67227;SDS011;54139;42.616;23.748;2023-06-26T07:57:59;9.70;;;7.55;;
67227;SDS011;54139;42.616;23.748;2023-06-26T08:00:26;7.97;;;7.10;;
67227;SDS011;54139;42.616;23.748;2023-06-26T08:02:52;7.47;;;6.88;;
67227;SDS011;54139;42.616;23.748;2023-06-26T08:05:17;8.43;;;7.70;;
67227;SDS011;54139;42.616;23.748;2023-06-26T08:07:43;7.50;;;6.53;;
67227;SDS011;54139;42.616;23.748;2023-06-26T08:10:08;6.97;;;6.28;;
67227;SDS011;54139;42.616;23.748;2023-06-26T08:12:34;9.23;;;6.47;;
67227;SDS011;54139;42.616;23.748;2023-06-26T08:15:01;7.65;;;6.22;;
67227;SDS011;54139;42.616;23.748;2023-06-26T08:17:28;6.97;;;6.38;;
67227;SDS011;54139;42.616;23.748;2023-06-26T08:19:53;7.45;;;6.82;;
67227;SDS011;54139;42.616;23.748;2023-06-26T08:22:19;7.20;;;6.55;;
67227;SDS011;54139;42.616;23.748;2023-06-26T08:24:44;6.75;;;6.20;;
67227;SDS011;54139;42.616;23.748;2023-06-26T08:27:10;7.10;;;6.70;;
67227;SDS011;54139;42.616;23.748;2023-06-26T08:29:35;7.80;;;6.53;;
67227;SDS011;54139;42.616;23.748;2023-06-26T08:32:00;6.47;;;5.88;;
67227;SDS011;54139;42.616;23.748;2023-06-26T08:34:27;5.97;;;5.05;;
67227;SDS011;54139;42.616;23.748;2023-06-26T08:36:52;5.53;;;5.07;;
67227;SDS011;54139;42.616;23.748;2023-06-26T08:39:18;5.38;;;4.95;;
67227;SDS011;54139;42.616;23.748;2023-06-26T08:41:44;4.82;;;4.40;;
67227;SDS011;54139;42.616;23.748;2023-06-26T08:44:09;5.10;;;4.60;;
67227;SDS011;54139;42.616;23.748;2023-06-26T08:46:35;6.63;;;4.55;;
67227;SDS011;54139;42.616;23.748;2023-06-26T08:49:02;5.53;;;5.03;;
67227;SDS011;54139;42.616;23.748;2023-06-26T08:51:32;5.50;;;5.00;;
67227;SDS011;54139;42.616;23.748;2023-06-26T08:53:59;8.88;;;5.05;;
67227;SDS011;54139;42.616;23.748;2023-06-26T08:56:32;6.07;;;5.60;;
67227;SDS011;54139;42.616;23.748;2023-06-26T08:59:01;5.70;;;5.20;;
67227;SDS011;54139;42.616;23.748;2023-06-26T09:01:26;6.50;;;6.07;;
67227;SDS011;54139;42.616;23.748;2023-06-26T09:03:52;7.82;;;6.45;;
67227;SDS011;54139;42.616;23.748;2023-06-26T09:06:18;6.18;;;5.65;;
67227;SDS011;54139;42.616;23.748;2023-06-26T09:08:43;5.93;;;5.40;;
67227;SDS011;54139;42.616;23.748;2023-06-26T09:11:09;5.82;;;5.22;;
67227;SDS011;54139;42.616;23.748;2023-06-26T09:13:34;5.47;;;4.90;;
67227;SDS011;54139;42.616;23.748;2023-06-26T09:28:57;5.57;;;5.00;;
67227;SDS011;54139;42.616;23.748;2023-06-26T09:31:23;5.53;;;4.88;;
67227;SDS011;54139;42.616;23.748;2023-06-26T09:33:49;5.65;;;4.97;;
67227;SDS011;54139;42.616;23.748;2023-06-26T09:36:22;6.07;;;5.53;;
67227;SDS011;54139;42.616;23.748;2023-06-26T09:38:50;5.80;;;5.30;;
67227;SDS011;54139;42.616;23.748;2023-06-26T09:41:18;5.25;;;4.60;;
67227;SDS011;54139;42.616;23.748;2023-06-26T09:43:48;5.05;;;4.65;;
67227;SDS011;54139;42.616;23.748;2023-06-26T09:46:23;6.93;;;6.32;;
67227;SDS011;54139;42.616;23.748;2023-06-26T09:48:57;7.72;;;7.13;;
67227;SDS011;54139;42.616;23.748;2023-06-26T09:51:33;7.93;;;7.13;;
67227;SDS011;54139;42.616;23.748;2023-06-26T09:54:00;7.47;;;6.43;;
67227;SDS011;54139;42.616;23.748;2023-06-26T09:56:27;6.25;;;5.70;;
67227;SDS011;54139;42.616;23.748;2023-06-26T09:58:56;9.63;;;5.90;;
67227;SDS011;54139;42.616;23.748;2023-06-26T10:01:26;6.68;;;6.00;;
67227;SDS011;54139;42.616;23.748;2023-06-26T10:03:53;6.35;;;5.75;;
67227;SDS011;54139;42.616;23.748;2023-06-26T10:06:19;7.43;;;6.93;;
67227;SDS011;54139;42.616;23.748;2023-06-26T10:08:48;7.20;;;6.50;;
67227;SDS011;54139;42.616;23.748;2023-06-26T10:11:16;6.80;;;6.40;;
67227;SDS011;54139;42.616;23.748;2023-06-26T10:13:43;6.78;;;6.38;;
67227;SDS011;54139;42.616;23.748;2023-06-26T10:16:11;6.97;;;6.47;;
67227;SDS011;54139;42.616;23.748;2023-06-26T10:18:37;6.55;;;5.95;;
67227;SDS011;54139;42.616;23.748;2023-06-26T10:21:04;6.85;;;6.35;;
67227;SDS011;54139;42.616;23.748;2023-06-26T10:23:31;7.00;;;6.10;;
67227;SDS011;54139;42.616;23.748;2023-06-26T10:25:58;6.43;;;5.90;;
67227;SDS011;54139;42.616;23.748;2023-06-26T10:28:25;6.32;;;5.75;;
67227;SDS011;54139;42.616;23.748;2023-06-26T10:30:52;5.70;;;5.20;;
67227;SDS011;54139;42.616;23.748;2023-06-26T10:33:19;4.40;;;4.05;;
67227;SDS011;54139;42.616;23.748;2023-06-26T10:35:45;5.03;;;4.55;;
67227;SDS011;54139;42.616;23.748;2023-06-26T10:38:11;5.07;;;4.68;;
67227;SDS011;54139;42.616;23.748;2023-06-26T10:40:55;5.72;;;5.03;;
67227;SDS011;54139;42.616;23.748;2023-06-26T10:43:20;6.00;;;5.50;;
67227;SDS011;54139;42.616;23.748;2023-06-26T10:45:47;5.30;;;4.70;;
67227;SDS011;54139;42.616;23.748;2023-06-26T10:48:18;4.45;;;4.05;;
67227;SDS011;54139;42.616;23.748;2023-06-26T10:50:46;4.70;;;4.30;;
67227;SDS011;54139;42.616;23.748;2023-06-26T11:03:38;5.00;;;4.60;;
67227;SDS011;54139;42.616;23.748;2023-06-26T11:06:14;6.03;;;5.63;;
67227;SDS011;54139;42.616;23.748;2023-06-26T11:08:53;6.53;;;6.03;;
67227;SDS011;54139;42.616;23.748;2023-06-26T11:14:19;6.82;;;4.93;;
67227;SDS011;54139;42.616;23.748;2023-06-26T11:16:45;5.07;;;4.57;;
67227;SDS011;54139;42.616;23.748;2023-06-26T11:19:12;5.32;;;4.93;;
67227;SDS011;54139;42.616;23.748;2023-06-26T11:21:38;6.78;;;5.53;;
67227;SDS011;54139;42.616;23.748;2023-06-26T11:24:04;7.25;;;6.45;;
67227;SDS011;54139;42.616;23.748;2023-06-26T11:26:31;6.32;;;5.82;;
67227;SDS011;54139;42.616;23.748;2023-06-26T11:29:03;6.63;;;6.03;;
67227;SDS011;54139;42.616;23.748;2023-06-26T11:31:38;6.32;;;5.70;;
67227;SDS011;54139;42.616;23.748;2023-06-26T11:34:09;6.80;;;6.25;;
67227;SDS011;54139;42.616;23.748;2023-06-26T11:36:36;6.63;;;6.03;;
67227;SDS011;54139;42.616;23.748;2023-06-26T11:39:03;6.93;;;6.13;;
67227;SDS011;54139;42.616;23.748;2023-06-26T11:41:31;7.82;;;7.03;;
67227;SDS011;54139;42.616;23.748;2023-06-26T11:44:07;6.95;;;6.35;;
67227;SDS011;54139;42.616;23.748;2023-06-26T11:46:35;6.43;;;5.70;;
67227;SDS011;54139;42.616;23.748;2023-06-26T11:49:04;5.85;;;5.50;;
67227;SDS011;54139;42.616;23.748;2023-06-26T11:51:33;7.03;;;5.63;;
67227;SDS011;54139;42.616;23.748;2023-06-26T11:54:01;5.28;;;4.78;;
67227;SDS011;54139;42.616;23.748;2023-06-26T11:56:30;7.15;;;5.68;;
67227;SDS011;54139;42.616;23.748;2023-06-26T12:04:00;6.00;;;5.50;;
67227;SDS011;54139;42.616;23.748;2023-06-26T12:06:28;5.63;;;5.07;;
67227;SDS011;54139;42.616;23.748;2023-06-26T12:08:54;5.90;;;5.10;;
67227;SDS011;54139;42.616;23.748;2023-06-26T12:11:20;5.90;;;5.35;;
67227;SDS011;54139;42.616;23.748;2023-06-26T12:13:47;5.57;;;4.68;;
67227;SDS011;54139;42.616;23.748;2023-06-26T12:16:13;4.57;;;4.28;;
67227;SDS011;54139;42.616;23.748;2023-06-26T12:18:39;5.00;;;4.47;;
67227;SDS011;54139;42.616;23.748;2023-06-26T12:21:05;6.10;;;4.28;;
67227;SDS011;54139;42.616;23.748;2023-06-26T12:23:38;3.78;;;3.40;;
67227;SDS011;54139;42.616;23.748;2023-06-26T12:26:20;3.97;;;3.63;;
67227;SDS011;54139;42.616;23.748;2023-06-26T12:28:46;4.80;;;3.47;;
67227;SDS011;54139;42.616;23.748;2023-06-26T12:31:15;4.30;;;4.00;;
67227;SDS011;54139;42.616;23.748;2023-06-26T12:33:44;4.82;;;3.50;;
67227;SDS011;54139;42.616;23.748;2023-06-26T12:38:36;4.00;;;3.70;;
67227;SDS011;54139;42.616;23.748;2023-06-26T12:41:01;4.65;;;3.85;;
67227;SDS011;54139;42.616;23.748;2023-06-26T12:43:27;3.72;;;3.40;;
67227;SDS011;54139;42.616;23.748;2023-06-26T12:45:55;5.03;;;4.63;;
67227;SDS011;54139;42.616;23.748;2023-06-26T12:50:47;4.60;;;4.20;;
67227;SDS011;54139;42.616;23.748;2023-06-26T12:53:13;4.70;;;4.20;;
67227;SDS011;54139;42.616;23.748;2023-06-26T12:55:39;6.43;;;4.72;;
67227;SDS011;54139;42.616;23.748;2023-06-26T12:58:04;4.57;;;4.20;;
67227;SDS011;54139;42.616;23.748;2023-06-26T13:00:29;6.13;;;4.55;;
67227;SDS011;54139;42.616;23.748;2023-06-26T13:02:57;5.22;;;4.82;;
67227;SDS011;54139;42.616;23.748;2023-06-26T13:05:23;5.03;;;4.40;;
67227;SDS011;54139;42.616;23.748;2023-06-26T13:07:49;6.25;;;5.40;;
67227;SDS011;54139;42.616;23.748;2023-06-26T13:10:14;9.50;;;5.28;;
67227;SDS011;54139;42.616;23.748;2023-06-26T13:12:40;6.63;;;4.88;;
67227;SDS011;54139;42.616;23.748;2023-06-26T13:15:05;4.50;;;4.10;;
67227;SDS011;54139;42.616;23.748;2023-06-26T13:17:31;3.88;;;3.47;;
67227;SDS011;54139;42.616;23.748;2023-06-26T13:19:56;3.60;;;3.38;;
67227;SDS011;54139;42.616;23.748;2023-06-26T13:22:22;4.38;;;3.40;;
67227;SDS011;54139;42.616;23.748;2023-06-26T13:24:48;5.30;;;5.00;;
67227;SDS011;54139;42.616;23.748;2023-06-26T13:27:14;5.85;;;5.35;;
67227;SDS011;54139;42.616;23.748;2023-06-26T13:29:41;5.05;;;4.50;;
67227;SDS011;54139;42.616;23.748;2023-06-26T13:32:07;5.95;;;5.53;;
67227;SDS011;54139;42.616;23.748;2023-06-26T13:34:32;4.93;;;4.53;;
67227;SDS011;54139;42.616;23.748;2023-06-26T13:36:58;9.45;;;4.35;;
67227;SDS011;54139;42.616;23.748;2023-06-26T13:39:25;5.53;;;4.32;;
67227;SDS011;54139;42.616;23.748;2023-06-26T13:41:50;4.20;;;3.80;;
67227;SDS011;54139;42.616;23.748;2023-06-26T13:44:16;5.32;;;4.28;;
67227;SDS011;54139;42.616;23.748;2023-06-26T13:46:41;5.80;;;4.63;;
67227;SDS011;54139;42.616;23.748;2023-06-26T13:49:07;5.30;;;4.55;;
67227;SDS011;54139;42.616;23.748;2023-06-26T13:51:32;4.93;;;4.53;;
67227;SDS011;54139;42.616;23.748;2023-06-26T13:53:58;7.32;;;4.68;;
67227;SDS011;54139;42.616;23.748;2023-06-26T13:56:25;9.43;;;5.30;;
67227;SDS011;54139;42.616;23.748;2023-06-26T13:58:51;4.47;;;4.07;;
67227;SDS011;54139;42.616;23.748;2023-06-26T14:01:16;4.93;;;4.43;;
67227;SDS011;54139;42.616;23.748;2023-06-26T14:03:41;5.10;;;4.70;;
67227;SDS011;54139;42.616;23.748;2023-06-26T14:06:07;5.80;;;4.38;;
67227;SDS011;54139;42.616;23.748;2023-06-26T14:08:32;4.88;;;4.47;;
67227;SDS011;54139;42.616;23.748;2023-06-26T14:10:58;4.88;;;4.57;;
67227;SDS011;54139;42.616;23.748;2023-06-26T14:13:24;4.75;;;4.35;;
67227;SDS011;54139;42.616;23.748;2023-06-26T14:15:49;4.50;;;4.20;;
67227;SDS011;54139;42.616;23.748;2023-06-26T14:18:17;6.13;;;5.65;;
67227;SDS011;54139;42.616;23.748;2023-06-26T14:20:43;7.90;;;6.15;;
67227;SDS011;54139;42.616;23.748;2023-06-26T14:23:09;5.90;;;5.40;;
67227;SDS011;54139;42.616;23.748;2023-06-26T14:25:34;6.78;;;6.10;;
67227;SDS011;54139;42.616;23.748;2023-06-26T14:28:00;6.35;;;5.80;;
67227;SDS011;54139;42.616;23.748;2023-06-26T14:30:26;5.82;;;5.43;;
67227;SDS011;54139;42.616;23.748;2023-06-26T14:32:51;5.97;;;5.45;;
67227;SDS011;54139;42.616;23.748;2023-06-26T14:35:17;6.03;;;5.60;;
67227;SDS011;54139;42.616;23.748;2023-06-26T14:37:42;6.95;;;6.28;;
67227;SDS011;54139;42.616;23.748;2023-06-26T14:40:09;6.88;;;6.32;;
67227;SDS011;54139;42.616;23.748;2023-06-26T14:42:34;9.02;;;7.10;;
67227;SDS011;54139;42.616;23.748;2023-06-26T14:45:00;7.05;;;5.82;;
67227;SDS011;54139;42.616;23.748;2023-06-26T14:47:25;6.18;;;5.60;;
67227;SDS011;54139;42.616;23.748;2023-06-26T14:49:51;7.47;;;6.53;;
67227;SDS011;54139;42.616;23.748;2023-06-26T14:52:16;7.13;;;6.43;;
67227;SDS011;54139;42.616;23.748;2023-06-26T14:54:42;7.22;;;6.55;;
67227;SDS011;54139;42.616;23.748;2023-06-26T14:57:07;9.90;;;7.53;;
67227;SDS011;54139;42.616;23.748;2023-06-26T14:59:33;8.30;;;6.53;;
67227;SDS011;54139;42.616;23.748;2023-06-26T15:01:58;6.72;;;6.15;;
67227;SDS011;54139;42.616;23.748;2023-06-26T15:04:24;6.50;;;5.90;;